Time;durP1;ratioP1;P1;durP2;ratioP2;P2;SDS_P1;SDS_P2;PMS_P1;PMS_P2;Temp;Humidity;BMP_temperature;BMP_pressure;BME280_temperature;BME280_humidity;BME280_pressure;Samples;Min_cycle;Max_cycle;Signal;HPM_P1;HPM_P2
2024/03/09 00:01:17;;;;;;;28.65;11.57;;;4.30;94.30;;;;;;5012953;28;20087;-70
2024/03/09 00:03:43;;;;;;;24.27;12.05;;;4.30;94.60;;;;;;5011882;28;20034;-70
2024/03/09 00:06:10;;;;;;;27.45;12.95;;;4.20;94.90;;;;;;5026683;28;20049;-70
2024/03/09 00:08:38;;;;;;;24.65;12.07;;;4.20;95.20;;;;;;5008173;28;20104;-70
2024/03/09 00:11:06;;;;;;;26.27;12.68;;;4.20;95.20;;;;;;5011738;28;20040;-70
2024/03/09 00:13:33;;;;;;;27.25;12.25;;;4.30;95.20;;;;;;5008966;28;20529;-68
2024/03/09 00:15:59;;;;;;;28.23;12.57;;;4.30;95.30;;;;;;5007144;28;20057;-68
2024/03/09 00:18:26;;;;;;;30.67;12.48;;;4.30;95.70;;;;;;5005257;28;20030;-68
2024/03/09 00:20:53;;;;;;;30.38;12.77;;;4.40;95.40;;;;;;5008226;28;20177;-69
2024/03/09 00:23:20;;;;;;;27.02;13.35;;;4.40;95.50;;;;;;5005155;28;20496;-68
2024/03/09 00:25:46;;;;;;;25.17;12.07;;;4.30;95.70;;;;;;5003378;28;20049;-68
2024/03/09 00:28:12;;;;;;;29.27;13.68;;;4.30;95.90;;;;;;5004755;28;20038;-68
2024/03/09 00:30:38;;;;;;;30.67;13.30;;;4.30;96.10;;;;;;5001504;28;20026;-68
2024/03/09 00:33:07;;;;;;;26.85;11.90;;;4.30;96.40;;;;;;5000353;28;20104;-69
2024/03/09 00:35:34;;;;;;;30.20;12.45;;;4.30;96.30;;;;;;5004111;28;20034;-63
2024/03/09 00:38:00;;;;;;;28.83;13.57;;;4.30;96.70;;;;;;5004619;28;20033;-64
2024/03/09 00:40:30;;;;;;;26.63;13.18;;;4.20;97.00;;;;;;4998966;28;20122;-63
2024/03/09 00:42:57;;;;;;;31.67;13.70;;;4.20;97.30;;;;;;5005179;28;20029;-63
2024/03/09 00:45:23;;;;;;;30.52;14.38;;;4.20;97.20;;;;;;4997973;28;20088;-63
2024/03/09 00:47:49;;;;;;;31.50;13.30;;;4.20;97.80;;;;;;5005321;28;20062;-63
2024/03/09 00:50:17;;;;;;;31.30;13.45;;;4.20;97.90;;;;;;5008201;28;20145;-64
2024/03/09 00:52:44;;;;;;;28.90;13.38;;;4.00;98.50;;;;;;5004610;28;20030;-63
2024/03/09 00:55:10;;;;;;;29.15;13.02;;;4.10;98.60;;;;;;4999635;28;20115;-63
2024/03/09 00:57:50;;;;;;;33.95;13.73;;;4.10;98.60;;;;;;5001720;28;20061;-63
2024/03/09 01:00:19;;;;;;;34.33;14.80;;;4.20;98.70;;;;;;5002224;28;20739;-65
2024/03/09 01:02:49;;;;;;;36.50;14.95;;;4.20;98.70;;;;;;5000516;28;20034;-64
2024/03/09 01:05:19;;;;;;;30.27;14.88;;;4.30;98.90;;;;;;5003513;28;20125;-63
2024/03/09 01:07:45;;;;;;;29.27;14.32;;;4.20;99.10;;;;;;5000105;28;20790;-64
2024/03/09 01:10:11;;;;;;;29.58;14.05;;;4.20;99.40;;;;;;5000748;28;20034;-64
2024/03/09 01:12:37;;;;;;;31.50;14.57;;;4.20;99.60;;;;;;5003268;28;20030;-63
2024/03/09 01:15:06;;;;;;;32.50;14.68;;;4.20;99.60;;;;;;5003889;28;20535;-63
2024/03/09 01:17:35;;;;;;;41.38;15.60;;;4.20;99.70;;;;;;5005165;28;20068;-63
2024/03/09 01:20:05;;;;;;;41.13;16.63;;;4.10;99.90;;;;;;5007196;28;20112;-64
2024/03/09 01:22:32;;;;;;;32.25;14.30;;;4.10;99.90;;;;;;5001522;28;20037;-63
2024/03/09 01:24:57;;;;;;;31.60;15.55;;;4.10;99.90;;;;;;4999414;28;20043;-63
2024/03/09 01:27:23;;;;;;;34.65;14.82;;;4.10;99.90;;;;;;4999950;28;20037;-63
2024/03/09 01:29:49;;;;;;;31.67;14.50;;;4.10;99.90;;;;;;5000835;28;20057;-63
2024/03/09 01:32:15;;;;;;;29.80;13.52;;;4.10;99.90;;;;;;4999493;28;20025;-63
2024/03/09 01:34:41;;;;;;;35.45;15.18;;;4.10;99.90;;;;;;5001484;28;20049;-63
2024/03/09 01:37:10;;;;;;;34.08;16.02;;;4.10;99.90;;;;;;4998555;28;20475;-63
2024/03/09 01:39:37;;;;;;;38.10;15.90;;;4.10;99.90;;;;;;4997946;28;20786;-64
2024/03/09 01:42:05;;;;;;;38.75;15.90;;;4.10;99.90;;;;;;5004363;28;20919;-63
2024/03/09 01:44:31;;;;;;;32.83;15.25;;;4.00;99.90;;;;;;4999955;28;20509;-65
2024/03/09 01:46:59;;;;;;;31.50;16.13;;;4.00;99.90;;;;;;5004134;28;20036;-68
2024/03/09 01:49:25;;;;;;;31.92;14.85;;;3.90;99.90;;;;;;5002216;28;20022;-68
2024/03/09 01:51:52;;;;;;;32.72;14.60;;;3.90;99.90;;;;;;4999220;28;20371;-68
2024/03/09 01:54:23;;;;;;;35.95;16.20;;;3.90;99.90;;;;;;4997718;28;20033;-69
2024/03/09 01:56:53;;;;;;;36.33;15.88;;;3.90;99.90;;;;;;5000401;28;20037;-69
2024/03/09 01:59:21;;;;;;;31.48;15.60;;;3.90;99.90;;;;;;5011796;28;20643;-68
2024/03/09 02:01:50;;;;;;;34.65;16.05;;;3.90;99.90;;;;;;4998140;28;20084;-68
2024/03/09 02:04:17;;;;;;;35.67;15.85;;;3.90;99.90;;;;;;4999847;28;20038;-69
2024/03/09 02:06:43;;;;;;;40.72;16.77;;;3.90;99.90;;;;;;4996062;28;20039;-69
2024/03/09 02:09:09;;;;;;;40.92;16.35;;;3.80;99.90;;;;;;4996293;28;20070;-69
2024/03/09 02:11:36;;;;;;;38.92;16.50;;;3.80;99.90;;;;;;4999938;28;20457;-69
2024/03/09 02:14:04;;;;;;;36.35;17.50;;;3.80;99.90;;;;;;5002754;28;20029;-69
2024/03/09 02:16:30;;;;;;;44.20;17.70;;;3.70;99.90;;;;;;5001770;28;20061;-69
2024/03/09 02:18:57;;;;;;;35.70;16.08;;;3.60;99.90;;;;;;5003448;28;20057;-69
2024/03/09 02:21:23;;;;;;;37.80;16.90;;;3.60;99.90;;;;;;4996715;28;20053;-69
2024/03/09 02:23:51;;;;;;;39.38;15.63;;;3.60;99.90;;;;;;4998099;28;20037;-68
2024/03/09 02:26:17;;;;;;;38.42;17.27;;;3.60;99.90;;;;;;5001024;28;20050;-69
2024/03/09 02:29:01;;;;;;;41.45;17.10;;;3.60;99.90;;;;;;4996614;28;20022;-69
2024/03/09 02:31:26;;;;;;;38.33;17.33;;;3.50;99.90;;;;;;4997645;28;20030;-69
2024/03/09 02:33:54;;;;;;;39.00;17.98;;;3.40;99.90;;;;;;4997482;28;20032;-69
2024/03/09 02:36:25;;;;;;;43.65;18.95;;;3.40;99.90;;;;;;4995900;28;20026;-69
2024/03/09 02:38:52;;;;;;;38.00;17.83;;;3.50;99.90;;;;;;4998429;28;20489;-69
2024/03/09 02:41:18;;;;;;;42.05;17.83;;;3.50;99.90;;;;;;5016377;28;20033;-69
2024/03/09 02:43:46;;;;;;;42.17;16.92;;;3.50;99.90;;;;;;5001681;28;20418;-69
2024/03/09 02:46:15;;;;;;;39.92;18.67;;;3.50;99.90;;;;;;5002385;28;20045;-69
2024/03/09 02:48:43;;;;;;;39.78;18.65;;;3.50;99.90;;;;;;4997788;28;20034;-68
2024/03/09 02:51:12;;;;;;;42.40;19.23;;;3.60;99.90;;;;;;4994865;28;20064;-69
2024/03/09 02:53:41;;;;;;;41.75;18.33;;;3.50;99.90;;;;;;4999702;28;20096;-69
2024/03/09 02:56:11;;;;;;;42.72;19.08;;;3.40;99.90;;;;;;4998912;28;20393;-69
2024/03/09 02:58:38;;;;;;;40.10;17.88;;;3.50;99.90;;;;;;4992770;28;20519;-69
2024/03/09 03:01:07;;;;;;;48.13;20.65;;;3.40;99.90;;;;;;4997384;28;21004;-69
2024/03/09 03:06:20;;;;;;;43.30;18.48;;;3.30;99.90;;;;;;5001260;28;20042;-69
2024/03/09 03:08:53;;;;;;;38.45;16.90;;;3.30;99.90;;;;;;5007214;28;20038;-69
2024/03/09 03:11:21;;;;;;;37.85;17.40;;;3.20;99.90;;;;;;5009777;28;20033;-69
2024/03/09 03:13:48;;;;;;;45.50;19.83;;;3.20;99.90;;;;;;5006819;28;20110;-69
2024/03/09 03:16:29;;;;;;;47.22;19.50;;;3.20;99.90;;;;;;5006524;28;20038;-69
2024/03/09 03:18:55;;;;;;;40.53;17.63;;;3.20;99.90;;;;;;5006726;28;20117;-69
2024/03/09 03:21:21;;;;;;;50.25;20.15;;;3.10;99.90;;;;;;5001053;28;20041;-69
2024/03/09 03:23:47;;;;;;;45.35;19.08;;;3.00;99.90;;;;;;5007072;28;20033;-69
2024/03/09 03:26:14;;;;;;;42.38;18.05;;;3.00;99.90;;;;;;5004696;28;20026;-69
2024/03/09 03:28:44;;;;;;;46.88;20.42;;;3.00;99.90;;;;;;5001052;28;20038;-69
2024/03/09 03:31:11;;;;;;;52.00;20.35;;;3.10;99.90;;;;;;5006176;28;20044;-69
2024/03/09 03:33:39;;;;;;;46.50;19.58;;;3.00;99.90;;;;;;5004443;28;20029;-69
2024/03/09 03:36:07;;;;;;;46.38;18.63;;;2.90;99.90;;;;;;5001013;28;20025;-69
2024/03/09 03:38:34;;;;;;;46.38;20.23;;;2.90;99.90;;;;;;5009982;28;20045;-69
2024/03/09 03:41:03;;;;;;;48.08;20.95;;;2.80;99.90;;;;;;5010389;28;20030;-69
2024/03/09 03:43:28;;;;;;;44.90;18.63;;;2.80;99.90;;;;;;5006045;28;20382;-69
2024/03/09 03:45:57;;;;;;;51.28;20.05;;;2.80;99.90;;;;;;5007562;28;20038;-69
2024/03/09 03:48:23;;;;;;;51.25;19.77;;;2.70;99.90;;;;;;5006451;28;20087;-69
2024/03/09 03:50:49;;;;;;;45.38;19.52;;;2.80;99.90;;;;;;5001394;28;20049;-68
2024/03/09 03:53:15;;;;;;;46.72;19.27;;;2.90;99.90;;;;;;5006297;28;20551;-68
2024/03/09 03:55:42;;;;;;;52.45;21.13;;;2.90;99.90;;;;;;5004538;28;20113;-69
2024/03/09 03:58:08;;;;;;;47.30;19.05;;;2.80;99.90;;;;;;5002368;28;20034;-69
2024/03/09 04:00:34;;;;;;;48.53;20.13;;;2.80;99.90;;;;;;5005545;28;20452;-69
2024/03/09 04:03:00;;;;;;;49.17;20.33;;;2.70;99.90;;;;;;5003985;28;20042;-69
2024/03/09 04:05:30;;;;;;;49.83;20.92;;;2.70;99.90;;;;;;5000870;28;20512;-69
2024/03/09 04:07:56;;;;;;;50.65;20.42;;;2.70;99.90;;;;;;5011655;28;20718;-69
2024/03/09 04:10:22;;;;;;;49.38;20.38;;;2.70;99.90;;;;;;5006782;28;20057;-68
2024/03/09 04:12:48;;;;;;;48.97;20.75;;;2.70;99.90;;;;;;5003621;28;20117;-69
2024/03/09 04:15:14;;;;;;;49.70;20.52;;;2.70;99.90;;;;;;5000291;28;20026;-69
2024/03/09 04:17:42;;;;;;;45.50;20.20;;;2.70;99.90;;;;;;5002096;28;20709;-69
2024/03/09 04:20:09;;;;;;;48.63;20.25;;;2.70;99.90;;;;;;4998431;28;20116;-69
2024/03/09 04:22:35;;;;;;;54.97;21.90;;;2.60;99.90;;;;;;5000082;28;20033;-69
2024/03/09 04:25:01;;;;;;;44.92;19.98;;;2.60;99.90;;;;;;5001160;28;20034;-69
2024/03/09 04:27:30;;;;;;;50.38;21.52;;;2.60;99.90;;;;;;4997660;28;20037;-69
2024/03/09 04:29:57;;;;;;;47.28;20.00;;;2.60;99.90;;;;;;5000475;28;20072;-69
2024/03/09 04:32:27;;;;;;;58.08;21.38;;;2.60;99.90;;;;;;5000280;28;20084;-69
2024/03/09 04:34:57;;;;;;;44.22;19.63;;;2.60;99.90;;;;;;4999577;28;20030;-69
2024/03/09 04:37:27;;;;;;;51.30;21.08;;;2.60;99.90;;;;;;5016394;28;20041;-69
2024/03/09 04:39:55;;;;;;;46.80;20.25;;;2.60;99.90;;;;;;5008292;28;20039;-70
2024/03/09 04:42:24;;;;;;;50.08;21.45;;;2.70;99.90;;;;;;5006336;28;20097;-69
2024/03/09 04:44:51;;;;;;;50.35;21.23;;;2.70;99.90;;;;;;5006871;28;20029;-69
2024/03/09 04:47:18;;;;;;;54.42;21.60;;;2.70;99.90;;;;;;5005271;28;20116;-69
2024/03/09 04:49:45;;;;;;;56.47;21.65;;;2.70;99.90;;;;;;5005322;28;20095;-69
2024/03/09 04:52:14;;;;;;;50.28;21.80;;;2.70;99.90;;;;;;5006394;28;20026;-69
2024/03/09 04:54:43;;;;;;;58.05;21.50;;;2.80;99.90;;;;;;5004029;28;20112;-69
2024/03/09 04:57:24;;;;;;;54.15;22.38;;;2.60;99.90;;;;;;5007837;28;20038;-69
2024/03/09 04:59:50;;;;;;;52.05;21.98;;;2.60;99.90;;;;;;5009395;28;20112;-69
2024/03/09 05:02:19;;;;;;;50.67;20.50;;;2.60;99.90;;;;;;5001161;28;20116;-69
2024/03/09 05:04:45;;;;;;;52.13;22.42;;;2.60;99.90;;;;;;5003331;28;20091;-69
2024/03/09 05:07:10;;;;;;;53.13;21.98;;;2.70;99.90;;;;;;5011124;28;20030;-69
2024/03/09 05:09:37;;;;;;;52.03;19.80;;;2.70;99.90;;;;;;5015529;28;20038;-69
2024/03/09 05:12:06;;;;;;;56.15;22.02;;;2.60;99.90;;;;;;5001100;28;20137;-69
2024/03/09 05:14:31;;;;;;;55.67;22.13;;;2.60;99.90;;;;;;5013470;28;20026;-69
2024/03/09 05:16:58;;;;;;;58.55;22.27;;;2.70;99.90;;;;;;5003246;28;20026;-68
2024/03/09 05:19:24;;;;;;;57.05;21.65;;;2.60;99.90;;;;;;5007468;28;20033;-69
2024/03/09 05:21:51;;;;;;;49.83;21.25;;;2.70;99.90;;;;;;5013401;28;20816;-69
2024/03/09 05:24:17;;;;;;;51.70;21.20;;;2.70;99.90;;;;;;5003123;28;20049;-69
2024/03/09 05:26:43;;;;;;;52.30;22.38;;;2.70;99.90;;;;;;5007231;28;20030;-69
2024/03/09 05:29:12;;;;;;;54.22;22.52;;;2.60;99.90;;;;;;5008821;28;20041;-69
2024/03/09 05:31:39;;;;;;;58.55;20.58;;;2.70;99.90;;;;;;5007395;28;20070;-69
2024/03/09 05:34:08;;;;;;;47.50;20.45;;;2.70;99.90;;;;;;5004425;28;20565;-69
2024/03/09 05:36:35;;;;;;;51.35;20.95;;;2.70;99.90;;;;;;5005438;28;20030;-69
2024/03/09 05:39:01;;;;;;;50.88;21.63;;;2.60;99.90;;;;;;5002134;28;20159;-69
2024/03/09 05:41:26;;;;;;;52.08;20.77;;;2.60;99.90;;;;;;5002414;28;20034;-69
2024/03/09 05:43:52;;;;;;;49.25;20.75;;;2.60;99.90;;;;;;5008916;28;20092;-69
2024/03/09 05:46:18;;;;;;;46.33;20.33;;;2.60;99.90;;;;;;5011234;28;20049;-69
2024/03/09 05:48:47;;;;;;;48.28;21.13;;;2.60;99.90;;;;;;5007491;28;20056;-69
2024/03/09 05:51:16;;;;;;;52.17;21.60;;;2.70;99.90;;;;;;5008828;28;20476;-69
2024/03/09 05:53:42;;;;;;;53.08;22.10;;;2.60;99.90;;;;;;5008247;28;20587;-69
2024/03/09 05:56:11;;;;;;;51.53;21.58;;;2.60;99.90;;;;;;5001043;28;20034;-69
2024/03/09 05:58:38;;;;;;;54.15;21.45;;;2.60;99.90;;;;;;5006221;28;20568;-69
2024/03/09 06:01:04;;;;;;;49.67;21.15;;;2.60;99.90;;;;;;5010237;28;20037;-69
2024/03/09 06:03:29;;;;;;;51.95;20.55;;;2.50;99.90;;;;;;5004088;28;20036;-69
2024/03/09 06:05:56;;;;;;;57.38;21.65;;;2.50;99.90;;;;;;5010031;28;20026;-69
2024/03/09 06:08:22;;;;;;;53.15;21.52;;;2.50;99.90;;;;;;5004123;28;20040;-69
2024/03/09 06:10:49;;;;;;;54.30;22.90;;;2.50;99.90;;;;;;5000514;28;20807;-70
2024/03/09 06:13:18;;;;;;;52.13;21.77;;;2.40;99.90;;;;;;5006984;28;20452;-69
2024/03/09 06:15:45;;;;;;;55.05;21.77;;;2.50;99.90;;;;;;5005986;28;20034;-69
2024/03/09 06:18:11;;;;;;;54.70;21.65;;;2.50;99.90;;;;;;5003448;28;20547;-68
2024/03/09 06:20:41;;;;;;;47.28;21.10;;;2.50;99.90;;;;;;5014172;28;20124;-69
2024/03/09 06:23:07;;;;;;;59.40;23.15;;;2.50;99.90;;;;;;5009668;28;20045;-67
2024/03/09 06:25:33;;;;;;;60.25;22.45;;;2.50;99.90;;;;;;5005776;28;20049;-69
2024/03/09 06:28:03;;;;;;;52.00;22.65;;;2.50;99.90;;;;;;5009282;28;20033;-69
2024/03/09 06:30:29;;;;;;;54.35;21.33;;;2.50;99.90;;;;;;5005573;28;20029;-69
2024/03/09 06:32:57;;;;;;;56.13;22.40;;;2.50;99.90;;;;;;5009514;28;20129;-69
2024/03/09 06:35:26;;;;;;;52.50;20.98;;;2.60;99.90;;;;;;5004001;28;20032;-69
2024/03/09 06:37:58;;;;;;;57.15;22.67;;;2.60;99.90;;;;;;5003787;28;20037;-69
2024/03/09 06:40:29;;;;;;;52.13;20.88;;;2.70;99.90;;;;;;5006233;28;20032;-64
2024/03/09 06:43:05;;;;;;;52.78;21.77;;;2.80;99.90;;;;;;5008570;28;20034;-69
2024/03/09 06:45:31;;;;;;;53.08;21.25;;;2.80;99.90;;;;;;5012197;28;20030;-68
2024/03/09 06:47:58;;;;;;;50.65;20.90;;;2.80;99.90;;;;;;5003883;28;20034;-68
2024/03/09 06:50:25;;;;;;;54.55;22.35;;;2.90;99.90;;;;;;5009261;28;20112;-69
2024/03/09 06:52:51;;;;;;;59.58;23.15;;;2.90;99.90;;;;;;5007881;28;20049;-69
2024/03/09 06:55:18;;;;;;;49.55;21.60;;;3.10;99.90;;;;;;5002584;28;20513;-69
2024/03/09 06:57:46;;;;;;;50.10;21.50;;;3.30;99.90;;;;;;5011521;28;20030;-69
2024/03/09 07:00:14;;;;;;;48.30;21.92;;;3.30;99.90;;;;;;5009555;28;20068;-69
2024/03/09 07:02:43;;;;;;;58.97;23.10;;;3.40;99.90;;;;;;5006169;28;20394;-69
2024/03/09 07:05:10;;;;;;;53.47;21.67;;;3.50;99.90;;;;;;4998461;28;20033;-69
2024/03/09 07:07:41;;;;;;;51.58;22.17;;;3.70;99.90;;;;;;5004672;28;20666;-69
2024/03/09 07:10:11;;;;;;;52.30;20.88;;;3.70;99.90;;;;;;4999626;28;20114;-73
2024/03/09 07:12:40;;;;;;;45.47;20.58;;;3.60;99.90;;;;;;5009515;28;20068;-70
2024/03/09 07:15:17;;;;;;;42.92;20.15;;;3.80;99.90;;;;;;5007128;28;20489;-70
2024/03/09 07:17:50;;;;;;;51.88;21.58;;;3.80;99.90;;;;;;5002146;28;20045;-72
2024/03/09 07:20:17;;;;;;;49.90;21.60;;;3.90;99.90;;;;;;5004406;28;20052;-70
2024/03/09 07:22:45;;;;;;;56.67;22.15;;;4.10;99.90;;;;;;5001290;28;20129;-71
2024/03/09 07:25:15;;;;;;;48.28;20.90;;;4.20;99.90;;;;;;4994700;28;20647;-71
2024/03/09 07:27:41;;;;;;;49.53;22.42;;;4.40;99.90;;;;;;5003846;28;20030;-69
2024/03/09 07:30:09;;;;;;;57.00;23.30;;;4.70;99.90;;;;;;5007457;28;20060;-69
2024/03/09 07:32:37;;;;;;;48.13;21.42;;;4.70;99.90;;;;;;5003255;28;20025;-69
2024/03/09 07:35:16;;;;;;;50.13;21.95;;;4.90;99.90;;;;;;5006854;28;20046;-70
2024/03/09 07:37:48;;;;;;;51.28;23.10;;;5.10;99.90;;;;;;5009645;28;20567;-70
2024/03/09 07:40:16;;;;;;;48.45;21.20;;;5.40;99.90;;;;;;4999264;28;20037;-70
2024/03/09 07:42:43;;;;;;;48.75;21.00;;;5.50;99.90;;;;;;5009259;28;20714;-70
2024/03/09 09:46:38;;;;;;;34.85;15.88;;;11.90;85.10;;;;;;4998550;28;20048;-69
2024/03/09 09:49:07;;;;;;;32.92;16.27;;;11.40;84.80;;;;;;5010149;28;20037;-68
2024/03/09 09:51:34;;;;;;;31.58;15.65;;;11.10;87.10;;;;;;4999748;28;20084;-69
2024/03/09 09:54:02;;;;;;;31.63;15.43;;;10.70;87.80;;;;;;5008688;28;20830;-69
2024/03/09 09:56:27;;;;;;;30.67;15.05;;;10.80;89.00;;;;;;5010200;28;20540;-68
2024/03/09 09:58:53;;;;;;;34.03;16.15;;;10.90;88.20;;;;;;5004932;28;20042;-68
2024/03/09 10:01:23;;;;;;;30.73;15.02;;;11.10;88.10;;;;;;5004854;28;20106;-68
2024/03/09 10:03:49;;;;;;;33.05;15.88;;;11.30;87.20;;;;;;5008954;28;20037;-69
2024/03/09 10:06:20;;;;;;;35.50;16.05;;;11.70;87.00;;;;;;5003425;28;20038;-69
2024/03/09 10:08:53;;;;;;;30.23;14.60;;;11.70;85.10;;;;;;5011453;28;20107;-69
2024/03/09 10:11:24;;;;;;;31.70;15.55;;;11.50;85.70;;;;;;5010910;28;20121;-68
2024/03/09 10:14:00;;;;;;;30.20;14.93;;;11.50;85.60;;;;;;5008946;28;20510;-68
2024/03/09 10:16:30;;;;;;;26.58;14.07;;;11.30;85.60;;;;;;5005818;28;20025;-69
2024/03/09 10:18:58;;;;;;;32.28;16.30;;;11.20;85.90;;;;;;5007513;28;20576;-69
2024/03/09 10:21:33;;;;;;;29.13;14.35;;;10.90;88.20;;;;;;5005481;28;20480;-69
2024/03/09 10:24:07;;;;;;;35.40;17.10;;;10.90;89.00;;;;;;5011565;28;20034;-69
2024/03/09 10:26:34;;;;;;;29.40;14.75;;;10.80;89.00;;;;;;5009467;28;20124;-68
2024/03/09 10:29:02;;;;;;;31.60;15.25;;;11.00;89.90;;;;;;5002889;28;20083;-76
2024/03/09 10:31:31;;;;;;;27.90;14.88;;;11.30;88.90;;;;;;5009610;28;20026;-70
2024/03/09 10:33:58;;;;;;;29.00;13.00;;;11.40;88.70;;;;;;5004318;28;20022;-71
2024/03/09 10:36:25;;;;;;;26.13;12.70;;;11.30;87.90;;;;;;5004142;28;20026;-70
2024/03/09 10:38:54;;;;;;;25.92;13.25;;;11.20;88.00;;;;;;5005869;28;20041;-71
2024/03/09 10:41:25;;;;;;;30.63;15.32;;;11.20;88.20;;;;;;5008839;28;20041;-70
2024/03/09 10:43:53;;;;;;;29.15;14.02;;;11.10;88.30;;;;;;5003814;28;20070;-70
2024/03/09 10:46:28;;;;;;;28.40;13.23;;;11.20;87.80;;;;;;5004737;28;20034;-71
2024/03/09 10:48:58;;;;;;;25.43;12.13;;;11.30;87.30;;;;;;5000127;28;20040;-65
2024/03/09 10:51:46;;;;;;;22.73;11.15;;;11.30;86.90;;;;;;5006121;28;20129;-71
2024/03/09 10:54:34;;;;;;;22.25;11.52;;;11.20;86.80;;;;;;5006862;28;20133;-70
2024/03/09 10:57:03;;;;;;;22.48;10.80;;;11.00;86.90;;;;;;5009196;28;20041;-70
2024/03/09 10:59:30;;;;;;;22.35;11.90;;;11.00;87.40;;;;;;5019168;28;20100;-71
2024/03/09 11:01:56;;;;;;;24.25;11.85;;;11.00;88.00;;;;;;5020664;28;20121;-71
2024/03/09 11:04:24;;;;;;;22.02;11.52;;;11.20;87.40;;;;;;5008750;28;20064;-71
2024/03/09 11:06:51;;;;;;;21.42;11.20;;;11.40;87.10;;;;;;4998091;28;20115;-70
2024/03/09 11:09:29;;;;;;;22.60;10.90;;;11.40;86.10;;;;;;5000742;28;20441;-75
2024/03/09 11:11:59;;;;;;;22.55;11.05;;;11.50;86.30;;;;;;5002055;28;20672;-73
2024/03/09 11:14:26;;;;;;;23.73;11.75;;;11.50;86.30;;;;;;5003488;28;20100;-70
2024/03/09 11:16:55;;;;;;;22.30;10.75;;;11.30;85.30;;;;;;5006795;28;20030;-72
2024/03/09 11:19:22;;;;;;;21.25;9.98;;;11.20;86.50;;;;;;5009956;28;20855;-74
2024/03/09 11:21:51;;;;;;;22.45;11.70;;;11.20;86.80;;;;;;4995487;28;20079;-73
2024/03/09 11:24:18;;;;;;;22.20;11.63;;;11.00;87.30;;;;;;5010962;28;20584;-74
2024/03/09 11:26:52;;;;;;;21.77;10.65;;;10.90;87.90;;;;;;5008007;28;20562;-74
2024/03/09 11:29:28;;;;;;;26.23;11.93;;;10.90;88.00;;;;;;5010026;28;20034;-72
2024/03/09 11:31:58;;;;;;;25.30;11.97;;;10.80;89.00;;;;;;5011163;28;20047;-65
2024/03/09 11:34:26;;;;;;;25.55;12.25;;;10.80;88.30;;;;;;5020666;28;21020;-70
2024/03/09 11:37:00;;;;;;;21.67;11.73;;;10.80;88.80;;;;;;5007406;28;20033;-68
2024/03/09 11:39:33;;;;;;;23.38;11.40;;;10.90;88.60;;;;;;5010696;28;20952;-69
2024/03/09 11:42:00;;;;;;;25.40;12.60;;;10.70;88.70;;;;;;5012238;28;20398;-69
2024/03/09 11:44:27;;;;;;;21.15;11.48;;;10.80;89.50;;;;;;5008298;28;20029;-68
2024/03/09 11:46:55;;;;;;;21.23;10.88;;;10.70;89.20;;;;;;5012265;28;20045;-68
2024/03/09 11:49:28;;;;;;;23.50;11.25;;;10.60;89.40;;;;;;5005214;28;20029;-69
2024/03/09 11:51:57;;;;;;;29.48;13.60;;;10.40;90.00;;;;;;5006219;28;20475;-68
2024/03/09 11:54:25;;;;;;;24.13;12.52;;;10.30;90.20;;;;;;5009409;28;20528;-70
2024/03/09 11:56:52;;;;;;;25.08;11.45;;;10.20;90.50;;;;;;5005321;28;20034;-73
2024/03/09 11:59:18;;;;;;;26.50;11.65;;;10.10;90.50;;;;;;5008015;28;20498;-70
2024/03/09 12:01:45;;;;;;;24.95;12.93;;;10.00;90.60;;;;;;5012930;28;20109;-69
2024/03/09 12:04:13;;;;;;;24.35;12.88;;;10.00;90.90;;;;;;5006368;28;20630;-68
2024/03/09 12:06:41;;;;;;;28.02;12.80;;;10.10;91.40;;;;;;5011007;28;20418;-68
2024/03/09 12:09:08;;;;;;;27.17;12.15;;;10.20;91.10;;;;;;5009849;28;20079;-70
2024/03/09 12:11:35;;;;;;;24.75;11.25;;;10.10;90.80;;;;;;5008474;28;20037;-70
2024/03/09 12:14:01;;;;;;;25.30;12.18;;;10.20;91.20;;;;;;5009495;28;20169;-70
2024/03/09 12:16:28;;;;;;;23.25;12.13;;;10.20;91.00;;;;;;5010001;28;20136;-71
2024/03/09 12:18:58;;;;;;;23.90;12.85;;;10.10;90.90;;;;;;5006718;28;20136;-70
2024/03/09 12:21:25;;;;;;;25.40;12.57;;;10.20;91.00;;;;;;5006959;28;20037;-73
2024/03/09 12:24:01;;;;;;;21.80;11.63;;;10.20;91.30;;;;;;5006730;28;20045;-71
2024/03/09 12:26:28;;;;;;;23.85;11.70;;;10.10;90.90;;;;;;5004768;28;20046;-67
2024/03/09 12:28:58;;;;;;;26.02;12.25;;;10.20;91.10;;;;;;5010100;28;20029;-70
2024/03/09 12:31:27;;;;;;;23.48;12.15;;;10.30;91.30;;;;;;5013650;28;20036;-68
2024/03/09 12:33:54;;;;;;;25.15;11.73;;;10.20;91.00;;;;;;5003642;28;20034;-68
2024/03/09 12:36:23;;;;;;;28.42;13.15;;;10.20;91.10;;;;;;5011173;28;20037;-67
2024/03/09 12:38:49;;;;;;;24.88;11.10;;;10.10;91.10;;;;;;5009926;28;20037;-66
2024/03/09 12:41:28;;;;;;;24.98;11.70;;;10.00;90.90;;;;;;5003964;28;20052;-66
2024/03/09 12:43:55;;;;;;;23.17;11.10;;;10.20;91.20;;;;;;5010701;28;20029;-67
2024/03/09 12:46:26;;;;;;;20.15;11.48;;;10.20;91.40;;;;;;5007854;28;20405;-64
2024/03/09 12:48:54;;;;;;;21.27;11.00;;;10.30;91.00;;;;;;5001751;28;20378;-65
2024/03/09 12:51:21;;;;;;;25.25;11.35;;;10.50;91.00;;;;;;5004844;28;20052;-69
2024/03/09 12:53:57;;;;;;;22.25;11.15;;;10.60;90.90;;;;;;5008903;28;20056;-71
2024/03/09 12:56:29;;;;;;;21.92;10.85;;;10.50;90.50;;;;;;5007813;28;20026;-68
2024/03/09 12:59:00;;;;;;;23.08;10.35;;;10.50;90.50;;;;;;5005353;28;20121;-65
2024/03/09 13:01:30;;;;;;;22.55;11.13;;;10.40;90.70;;;;;;5007130;28;20033;-65
2024/03/09 13:04:11;;;;;;;22.35;10.82;;;10.60;90.90;;;;;;4999337;28;20056;-66
2024/03/09 13:06:41;;;;;;;22.30;11.13;;;10.80;90.90;;;;;;5005950;28;20057;-66
2024/03/09 13:09:11;;;;;;;23.83;11.27;;;11.00;89.90;;;;;;5009553;28;20068;-68
2024/03/09 13:11:37;;;;;;;24.58;11.65;;;11.20;89.30;;;;;;5010199;28;20049;-65
2024/03/09 13:14:04;;;;;;;24.17;11.10;;;11.30;89.00;;;;;;5010646;28;20087;-65
2024/03/09 13:16:32;;;;;;;22.83;10.40;;;11.20;88.70;;;;;;5006800;28;20094;-63
2024/03/09 13:18:58;;;;;;;21.52;11.18;;;11.10;89.10;;;;;;5002011;28;20041;-65
2024/03/09 13:21:24;;;;;;;21.95;11.00;;;10.90;89.10;;;;;;5008936;28;20111;-62
2024/03/09 13:23:55;;;;;;;22.50;10.05;;;10.90;90.00;;;;;;5008880;28;20408;-66
2024/03/09 13:26:22;;;;;;;19.17;10.80;;;11.00;90.20;;;;;;5004358;28;20030;-66
2024/03/09 13:28:49;;;;;;;19.42;10.52;;;11.10;89.00;;;;;;5009297;28;20037;-66
2024/03/09 13:31:16;;;;;;;19.60;9.90;;;11.00;90.20;;;;;;5012340;28;20038;-66
2024/03/09 13:33:42;;;;;;;21.08;10.50;;;11.10;90.00;;;;;;5006271;28;20041;-66
2024/03/09 13:36:23;;;;;;;23.75;11.48;;;11.10;90.00;;;;;;5015470;28;20132;-65
2024/03/09 13:38:49;;;;;;;22.75;11.57;;;11.10;88.60;;;;;;5009841;28;20420;-64
2024/03/09 13:41:24;;;;;;;18.92;10.35;;;11.10;89.50;;;;;;5007005;28;20136;-68
2024/03/09 13:43:50;;;;;;;23.58;11.02;;;11.10;89.90;;;;;;5011361;28;20049;-66
2024/03/09 13:46:16;;;;;;;19.20;9.98;;;11.30;90.30;;;;;;5007343;28;20669;-66
2024/03/09 13:48:43;;;;;;;22.65;10.50;;;11.60;88.80;;;;;;5001848;28;20485;-66
2024/03/09 13:51:15;;;;;;;19.40;11.25;;;11.50;87.10;;;;;;5008456;28;20164;-68
2024/03/09 13:53:45;;;;;;;23.38;10.80;;;11.60;87.50;;;;;;5008594;28;20136;-67
2024/03/09 13:56:14;;;;;;;21.48;11.23;;;11.40;87.30;;;;;;4999842;28;20033;-67
2024/03/09 13:58:49;;;;;;;18.83;10.07;;;11.30;87.30;;;;;;5011421;28;20029;-68
2024/03/09 14:01:19;;;;;;;24.83;11.43;;;11.30;88.30;;;;;;5007434;28;20126;-67
2024/03/09 14:03:47;;;;;;;16.92;10.18;;;11.20;87.90;;;;;;5006572;28;20568;-68
2024/03/09 14:06:21;;;;;;;18.33;10.27;;;11.20;88.40;;;;;;5010314;28;20038;-69
2024/03/09 14:08:48;;;;;;;20.90;10.43;;;11.00;87.90;;;;;;5008163;28;20489;-68
2024/03/09 14:11:18;;;;;;;21.60;10.18;;;11.00;88.60;;;;;;5006461;28;20038;-67
2024/03/09 14:13:44;;;;;;;22.77;10.45;;;11.10;88.70;;;;;;5006887;28;20558;-70
2024/03/09 14:16:13;;;;;;;20.48;9.50;;;10.90;88.70;;;;;;5005025;28;20489;-69
2024/03/09 14:18:41;;;;;;;17.23;9.25;;;11.00;89.70;;;;;;5009693;28;20040;-69
2024/03/09 14:21:08;;;;;;;21.83;10.05;;;11.00;88.80;;;;;;5015937;28;20416;-70
2024/03/09 14:23:35;;;;;;;20.33;10.10;;;11.00;89.60;;;;;;5005260;28;20045;-68
2024/03/09 14:26:03;;;;;;;17.10;10.00;;;11.10;89.90;;;;;;5002948;28;20037;-68
2024/03/09 14:28:29;;;;;;;19.95;10.15;;;11.10;90.00;;;;;;5006927;28;20034;-68
2024/03/09 14:30:54;;;;;;;18.88;10.18;;;11.10;89.40;;;;;;5004944;28;20056;-68
2024/03/09 14:33:20;;;;;;;17.55;9.77;;;11.20;89.90;;;;;;5009024;28;20025;-67
2024/03/09 14:35:46;;;;;;;19.35;9.52;;;11.30;89.50;;;;;;5004843;28;20038;-68
2024/03/09 14:38:12;;;;;;;23.45;9.70;;;11.30;89.40;;;;;;5005161;28;20036;-68
2024/03/09 14:40:39;;;;;;;19.70;9.38;;;11.30;88.70;;;;;;5007291;28;20061;-68
2024/03/09 14:43:08;;;;;;;19.65;9.50;;;11.20;88.60;;;;;;5007844;28;20461;-74